Time;durP1;ratioP1;P1;durP2;ratioP2;P2;SDS_P1;SDS_P2;PMS_P1;PMS_P2;Temp;Humidity;BMP_temperature;BMP_pressure;BME280_temperature;BME280_humidity;BME280_pressure;Samples;Min_cycle;Max_cycle;Signal;HPM_P1;HPM_P2
2021/12/09 00:01:52;;;;;;;35.22;22.10;;;;;;;;;;4881280;29;20657;-77
2021/12/09 00:04:27;;;;;;;36.97;22.98;;;;;;;;;;4930289;29;20063;-74
2021/12/09 00:06:55;;;;;;;31.95;20.75;;;;;;;;;;4926282;29;20071;-77
2021/12/09 00:09:24;;;;;;;35.10;22.50;;;;;;;;;;4913417;29;20051;-77
2021/12/09 00:11:52;;;;;;;35.60;23.08;;;;;;;;;;4931387;29;20480;-76
2021/12/09 00:14:24;;;;;;;39.47;24.98;;;;;;;;;;4933161;29;20040;-77
2021/12/09 00:16:51;;;;;;;;;;;;;;;;;;4913898;29;20162;-76
2021/12/09 00:19:18;;;;;;;39.53;23.27;;;;;;;;;;4945111;23;19922;-76
2021/12/09 00:21:46;;;;;;;37.97;23.13;;;;;;;;;;4956320;28;20050;-76
2021/12/09 00:24:13;;;;;;;41.60;24.73;;;;;;;;;;4939441;28;20059;-76
2021/12/09 00:26:44;;;;;;;40.05;23.55;;;;;;;;;;4947326;28;20499;-76
2021/12/09 00:29:11;;;;;;;39.90;22.63;;;;;;;;;;4943391;28;20107;-76
2021/12/09 00:31:39;;;;;;;32.33;20.85;;;;;;;;;;4944216;28;20093;-76
2021/12/09 00:34:06;;;;;;;32.63;22.08;;;;;;;;;;4948565;28;20046;-76
2021/12/09 00:36:42;;;;;;;42.38;23.45;;;;;;;;;;4941809;28;20051;-76
2021/12/09 00:39:10;;;;;;;47.55;25.70;;;;;;;;;;4915079;29;20517;-76
2021/12/09 00:41:37;;;;;;;40.80;24.67;;;;;;;;;;4945902;28;20083;-76
2021/12/09 00:44:05;;;;;;;46.53;26.52;;;;;;;;;;4929454;28;20143;-76
2021/12/09 00:46:33;;;;;;;46.38;25.42;;;;;;;;;;4941607;28;20044;-76
2021/12/09 00:49:01;;;;;;;43.55;25.73;;;;;;;;;;4940382;28;20138;-76
2021/12/09 00:51:28;;;;;;;44.40;25.48;;;;;;;;;;4943312;28;20031;-76
2021/12/09 00:53:55;;;;;;;47.92;27.40;;;;;;;;;;4937314;28;20103;-75
2021/12/09 00:56:23;;;;;;;46.97;26.85;;;;;;;;;;4948122;28;20046;-76
2021/12/09 00:58:51;;;;;;;49.05;27.42;;;;;;;;;;4942337;28;20134;-76
2021/12/09 01:01:18;;;;;;;46.30;26.70;;;;;;;;;;4950323;28;20049;-76
2021/12/09 01:03:49;;;;;;;46.03;27.65;;;;;;;;;;4949708;28;20047;-76
2021/12/09 01:06:17;;;;;;;44.10;26.80;;;;;;;;;;4941787;28;20567;-76
2021/12/09 01:08:44;;;;;;;40.85;25.67;;;;;;;;;;4941450;28;20070;-76
2021/12/09 01:11:12;;;;;;;40.17;24.27;;;;;;;;;;4943979;28;20039;-76
2021/12/09 01:13:41;;;;;;;43.10;26.65;;;;;;;;;;4928368;28;20115;-76
2021/12/09 01:16:09;;;;;;;39.83;23.25;;;;;;;;;;4931325;28;20570;-76
2021/12/09 01:18:38;;;;;;;43.55;25.48;;;;;;;;;;4938839;28;20159;-76
2021/12/09 01:21:06;;;;;;;42.75;25.05;;;;;;;;;;4941676;28;20043;-76
2021/12/09 01:23:33;;;;;;;41.75;24.67;;;;;;;;;;4943574;28;20085;-76
2021/12/09 01:26:03;;;;;;;42.10;24.75;;;;;;;;;;4942375;28;20476;-76
2021/12/09 01:28:36;;;;;;;40.75;24.27;;;;;;;;;;4936915;28;20053;-76
2021/12/09 01:31:06;;;;;;;43.95;23.92;;;;;;;;;;4927062;29;20515;-75
2021/12/09 01:33:34;;;;;;;46.13;26.00;;;;;;;;;;4948411;28;20415;-75
2021/12/09 01:36:02;;;;;;;38.20;23.90;;;;;;;;;;4932389;28;20479;-75
2021/12/09 01:38:32;;;;;;;40.85;23.83;;;;;;;;;;4945603;28;20547;-75
2021/12/09 01:41:00;;;;;;;44.88;25.13;;;;;;;;;;4905132;29;20056;-75
2021/12/09 01:43:27;;;;;;;40.08;24.42;;;;;;;;;;4911401;29;20470;-75
2021/12/09 01:46:01;;;;;;;52.15;28.52;;;;;;;;;;4914442;29;20572;-75
2021/12/09 01:48:29;;;;;;;46.63;26.90;;;;;;;;;;4895522;29;20049;-75
2021/12/09 01:50:57;;;;;;;40.45;24.50;;;;;;;;;;4892719;29;21376;-75
2021/12/09 01:53:24;;;;;;;55.72;29.65;;;;;;;;;;4885024;29;20127;-75
2021/12/09 01:55:52;;;;;;;41.47;25.20;;;;;;;;;;4908607;29;20078;-75
2021/12/09 01:58:19;;;;;;;43.25;25.98;;;;;;;;;;4905575;29;20058;-75
2021/12/09 02:00:46;;;;;;;51.45;26.02;;;;;;;;;;4901288;29;20072;-75
2021/12/09 02:03:14;;;;;;;54.55;28.20;;;;;;;;;;4889078;29;20064;-75
2021/12/09 02:05:42;;;;;;;53.28;27.80;;;;;;;;;;4896714;29;20044;-75
2021/12/09 02:08:12;;;;;;;47.88;27.17;;;;;;;;;;4887598;29;20045;-76
2021/12/09 02:10:40;;;;;;;45.35;24.55;;;;;;;;;;4912037;29;20052;-76
2021/12/09 02:13:07;;;;;;;44.92;25.50;;;;;;;;;;4934987;28;20040;-76
2021/12/09 02:15:36;;;;;;;50.90;25.63;;;;;;;;;;4926770;29;20478;-75
2021/12/09 02:18:05;;;;;;;47.35;26.02;;;;;;;;;;4929600;28;20039;-76
2021/12/09 02:20:34;;;;;;;46.72;26.00;;;;;;;;;;4952489;29;20587;-75
2021/12/09 02:23:07;;;;;;;50.30;27.88;;;;;;;;;;4937947;29;20428;-76
2021/12/09 02:25:35;;;;;;;55.10;26.98;;;;;;;;;;4906425;29;20137;-76
2021/12/09 02:28:03;;;;;;;55.40;29.00;;;;;;;;;;4947540;28;20435;-76
2021/12/09 02:30:30;;;;;;;62.53;29.42;;;;;;;;;;4940765;28;20045;-76
2021/12/09 02:32:58;;;;;;;51.88;27.90;;;;;;;;;;4938885;28;20043;-76
2021/12/09 02:35:25;;;;;;;52.70;26.50;;;;;;;;;;4929647;28;20154;-76
2021/12/09 02:37:52;;;;;;;48.38;27.35;;;;;;;;;;4928131;28;20457;-76
2021/12/09 02:40:20;;;;;;;51.50;26.45;;;;;;;;;;4944833;28;20047;-76
2021/12/09 02:42:47;;;;;;;58.08;29.60;;;;;;;;;;4940318;29;20058;-76
2021/12/09 02:45:15;;;;;;;51.05;25.70;;;;;;;;;;4934693;29;20067;-76
2021/12/09 02:47:42;;;;;;;47.78;25.45;;;;;;;;;;4944053;28;20043;-76
2021/12/09 02:50:10;;;;;;;54.47;26.75;;;;;;;;;;4944464;29;20070;-76
2021/12/09 02:52:38;;;;;;;66.18;29.67;;;;;;;;;;4933698;28;20063;-76
2021/12/09 02:55:06;;;;;;;49.95;24.70;;;;;;;;;;4947542;28;20167;-76
2021/12/09 02:57:34;;;;;;;48.03;25.98;;;;;;;;;;4933850;29;20051;-76
2021/12/09 03:00:02;;;;;;;58.00;27.33;;;;;;;;;;4951964;28;20078;-76
2021/12/09 03:02:33;;;;;;;66.60;30.10;;;;;;;;;;4936077;29;20043;-76
2021/12/09 03:05:02;;;;;;;54.97;26.50;;;;;;;;;;4939136;29;20094;-77
2021/12/09 03:07:34;;;;;;;48.72;25.42;;;;;;;;;;4940683;28;20310;-77
2021/12/09 03:10:09;;;;;;;53.13;26.13;;;;;;;;;;4943589;28;20160;-76
2021/12/09 03:12:40;;;;;;;52.47;26.30;;;;;;;;;;4942803;28;20576;-76
2021/12/09 03:15:09;;;;;;;54.80;26.58;;;;;;;;;;4953336;28;20047;-76
2021/12/09 03:17:38;;;;;;;70.25;30.38;;;;;;;;;;4953847;28;20211;-76
2021/12/09 03:20:08;;;;;;;59.55;28.30;;;;;;;;;;4944081;28;20082;-77
2021/12/09 03:22:36;;;;;;;70.88;31.08;;;;;;;;;;4948682;28;20544;-76
2021/12/09 03:25:04;;;;;;;62.17;28.27;;;;;;;;;;4935571;28;20472;-77
2021/12/09 03:27:32;;;;;;;52.92;26.73;;;;;;;;;;4963544;28;20039;-76
2021/12/09 03:29:59;;;;;;;48.15;25.10;;;;;;;;;;4956029;28;20134;-76
2021/12/09 03:32:26;;;;;;;50.72;25.05;;;;;;;;;;4964411;28;20038;-77
2021/12/09 03:34:54;;;;;;;45.85;25.15;;;;;;;;;;4962318;28;20408;-76
2021/12/09 03:37:23;;;;;;;50.03;25.02;;;;;;;;;;4937826;28;20490;-76
2021/12/09 03:39:51;;;;;;;49.97;25.60;;;;;;;;;;4932587;28;20051;-77
2021/12/09 03:42:21;;;;;;;52.38;25.02;;;;;;;;;;4949548;28;20067;-76
2021/12/09 03:44:49;;;;;;;48.92;24.70;;;;;;;;;;4934793;29;20066;-76
2021/12/09 03:47:18;;;;;;;53.90;26.33;;;;;;;;;;4953035;28;20106;-76
2021/12/09 03:49:46;;;;;;;65.18;27.92;;;;;;;;;;4955044;28;20447;-76
2021/12/09 03:52:14;;;;;;;44.40;23.83;;;;;;;;;;4941390;28;20546;-76
2021/12/09 03:54:42;;;;;;;66.72;28.13;;;;;;;;;;4939489;29;20758;-76
2021/12/09 03:57:10;;;;;;;69.85;28.20;;;;;;;;;;4932320;28;20134;-76
2021/12/09 03:59:38;;;;;;;69.82;29.42;;;;;;;;;;4947074;28;20055;-77
2021/12/09 04:02:06;;;;;;;58.47;27.73;;;;;;;;;;4953894;28;20145;-76
2021/12/09 04:04:34;;;;;;;53.45;25.95;;;;;;;;;;4950970;29;20059;-76
2021/12/09 04:07:01;;;;;;;60.45;26.17;;;;;;;;;;4949764;28;20094;-76
2021/12/09 04:09:29;;;;;;;59.28;26.85;;;;;;;;;;4952712;28;20086;-76
2021/12/09 04:11:56;;;;;;;64.20;28.00;;;;;;;;;;4945481;28;20098;-76
2021/12/09 04:14:23;;;;;;;70.47;30.05;;;;;;;;;;4954245;28;20518;-76
2021/12/09 04:16:52;;;;;;;84.15;30.95;;;;;;;;;;4948064;29;20162;-76
2021/12/09 04:19:19;;;;;;;60.63;27.63;;;;;;;;;;4927843;29;20078;-76
2021/12/09 04:21:47;;;;;;;64.30;27.73;;;;;;;;;;4953628;28;20118;-76
2021/12/09 04:24:15;;;;;;;64.85;27.58;;;;;;;;;;4950969;28;20067;-76
2021/12/09 04:26:45;;;;;;;51.72;26.20;;;;;;;;;;4932515;29;20198;-75
2021/12/09 04:29:13;;;;;;;71.07;28.33;;;;;;;;;;4946075;28;20560;-75
2021/12/09 04:31:41;;;;;;;88.00;31.83;;;;;;;;;;4947713;28;20043;-75
2021/12/09 04:34:10;;;;;;;72.15;28.60;;;;;;;;;;4950358;29;20234;-76
2021/12/09 04:36:38;;;;;;;64.53;28.10;;;;;;;;;;4930118;29;20128;-76
2021/12/09 04:39:06;;;;;;;61.22;27.85;;;;;;;;;;4946864;28;20074;-75
2021/12/09 04:41:33;;;;;;;61.03;28.73;;;;;;;;;;4923275;29;20132;-75
2021/12/09 04:44:01;;;;;;;64.75;27.48;;;;;;;;;;4931723;29;20063;-76
2021/12/09 04:46:28;;;;;;;44.63;23.25;;;;;;;;;;4940965;29;20130;-75
2021/12/09 04:48:56;;;;;;;48.80;23.90;;;;;;;;;;4942098;28;20039;-76
2021/12/09 04:51:24;;;;;;;52.28;23.92;;;;;;;;;;4949814;28;20078;-75
2021/12/09 04:53:51;;;;;;;53.63;25.40;;;;;;;;;;4944138;28;20063;-75
2021/12/09 04:56:19;;;;;;;56.03;26.45;;;;;;;;;;4941845;28;20051;-75
2021/12/09 04:58:46;;;;;;;50.00;26.23;;;;;;;;;;4946531;28;20114;-76
2021/12/09 05:01:14;;;;;;;66.53;28.67;;;;;;;;;;4916191;29;20834;-76
2021/12/09 05:03:45;;;;;;;56.25;25.50;;;;;;;;;;4915431;28;20051;-76
2021/12/09 05:06:13;;;;;;;67.45;28.67;;;;;;;;;;4941799;28;20440;-75
2021/12/09 05:08:45;;;;;;;53.72;26.13;;;;;;;;;;4942037;28;20094;-75
2021/12/09 05:11:47;;;;;;;57.22;25.80;;;;;;;;;;4946657;28;20098;-75
2021/12/09 05:14:15;;;;;;;71.43;28.92;;;;;;;;;;4943814;28;20035;-75
2021/12/09 05:16:44;;;;;;;58.03;25.95;;;;;;;;;;4938748;28;20190;-75
2021/12/09 05:19:11;;;;;;;74.47;29.17;;;;;;;;;;4929319;29;20039;-73
2021/12/09 05:21:39;;;;;;;57.92;26.33;;;;;;;;;;4950815;28;20431;-73
2021/12/09 05:24:14;;;;;;;84.38;29.48;;;;;;;;;;4949443;29;20043;-75
2021/12/09 05:26:46;;;;;;;67.22;26.63;;;;;;;;;;4943486;28;20069;-75
2021/12/09 05:29:14;;;;;;;;;;;;;;;;;;4947495;28;20038;-75
2021/12/09 05:34:28;;;;;;;50.35;24.95;;;;;;;;;;4948309;28;20134;-75
2021/12/09 05:36:55;;;;;;;62.88;25.77;;;;;;;;;;4930007;28;20160;-75
2021/12/09 05:39:23;;;;;;;62.25;29.27;;;;;;;;;;4950400;28;20046;-75
2021/12/09 05:41:52;;;;;;;59.58;27.65;;;;;;;;;;4948458;28;20176;-75
2021/12/09 05:44:19;;;;;;;65.32;26.65;;;;;;;;;;4945591;29;20082;-75
2021/12/09 05:46:47;;;;;;;65.47;28.70;;;;;;;;;;4943142;28;20086;-75
2021/12/09 05:49:15;;;;;;;74.15;29.02;;;;;;;;;;4940795;28;20050;-75
2021/12/09 05:51:43;;;;;;;89.63;31.48;;;;;;;;;;4943667;28;20151;-75
2021/12/09 05:54:11;;;;;;;71.25;28.83;;;;;;;;;;4945217;28;20043;-75
2021/12/09 05:56:39;;;;;;;65.22;27.95;;;;;;;;;;4947800;28;20074;-75
2021/12/09 05:59:07;;;;;;;72.95;29.05;;;;;;;;;;4947027;28;20456;-75
2021/12/09 06:01:35;;;;;;;66.70;26.95;;;;;;;;;;4947779;28;20094;-75
2021/12/09 06:04:03;;;;;;;54.47;24.27;;;;;;;;;;4930751;28;20090;-75
2021/12/09 06:06:30;;;;;;;61.35;25.67;;;;;;;;;;4945909;29;20043;-75
2021/12/09 06:08:58;;;;;;;67.32;28.02;;;;;;;;;;4945358;28;20070;-75
2021/12/09 06:11:26;;;;;;;54.55;24.55;;;;;;;;;;4938975;28;20074;-75
2021/12/09 06:13:54;;;;;;;82.65;28.02;;;;;;;;;;4944623;28;20122;-75
2021/12/09 06:16:22;;;;;;;67.25;27.77;;;;;;;;;;4942485;28;20118;-75
2021/12/09 06:18:49;;;;;;;74.15;29.38;;;;;;;;;;4939359;23;20744;-76
2021/12/09 06:21:18;;;;;;;90.35;34.92;;;;;;;;;;4919523;29;20578;-76
2021/12/09 06:23:50;;;;;;;73.60;29.52;;;;;;;;;;4877488;29;20287;-77
2021/12/09 06:26:35;;;;;;;57.15;26.08;;;;;;;;;;4908136;29;20051;-78
2021/12/09 06:29:14;;;;;;;97.95;37.85;;;;;;;;;;4884329;29;20053;-76
2021/12/09 06:31:46;;;;;;;82.20;35.08;;;;;;;;;;4879865;29;20075;-77
2021/12/09 06:34:14;;;;;;;86.13;33.08;;;;;;;;;;4926108;29;20068;-76
2021/12/09 06:36:44;;;;;;;55.65;26.50;;;;;;;;;;4920949;29;20044;-77
2021/12/09 06:39:18;;;;;;;66.70;28.27;;;;;;;;;;4909898;29;20047;-77
2021/12/09 06:41:47;;;;;;;65.93;27.30;;;;;;;;;;4896381;29;20083;-78
2021/12/09 06:44:19;;;;;;;55.10;26.50;;;;;;;;;;4901223;29;20104;-76
2021/12/09 06:47:02;;;;;;;63.63;27.15;;;;;;;;;;4879852;29;20141;-78
2021/12/09 06:49:38;;;;;;;49.60;25.65;;;;;;;;;;4831369;29;20052;-77
2021/12/09 06:52:18;;;;;;;58.95;26.48;;;;;;;;;;4850097;29;20040;-77
2021/12/09 06:54:46;;;;;;;47.40;24.65;;;;;;;;;;4884871;29;20055;-77
2021/12/09 06:57:13;;;;;;;54.05;24.25;;;;;;;;;;4868001;29;20239;-77
2021/12/09 06:59:41;;;;;;;45.25;22.52;;;;;;;;;;4859967;29;20192;-77
2021/12/09 07:02:08;;;;;;;42.33;23.27;;;;;;;;;;4869165;29;20072;-78
2021/12/09 07:04:36;;;;;;;43.83;21.13;;;;;;;;;;4870388;29;20062;-76
2021/12/09 07:07:03;;;;;;;39.88;22.25;;;;;;;;;;4843765;29;20467;-77
2021/12/09 07:09:31;;;;;;;38.30;20.65;;;;;;;;;;4872487;29;20227;-77
2021/12/09 07:11:59;;;;;;;39.75;22.08;;;;;;;;;;4861518;29;20049;-77
2021/12/09 07:14:26;;;;;;;49.28;21.50;;;;;;;;;;4870324;29;20144;-76
2021/12/09 07:16:59;;;;;;;53.60;21.90;;;;;;;;;;4873053;29;20053;-77
2021/12/09 07:19:27;;;;;;;43.90;24.13;;;;;;;;;;4870328;29;20041;-77
2021/12/09 07:21:55;;;;;;;49.33;24.58;;;;;;;;;;4863169;29;20097;-77
2021/12/09 07:24:23;;;;;;;47.20;22.40;;;;;;;;;;4877940;29;20048;-77
2021/12/09 07:26:50;;;;;;;49.47;22.95;;;;;;;;;;4876654;29;20067;-76
2021/12/09 07:29:19;;;;;;;43.88;23.90;;;;;;;;;;4924852;29;20044;-77
2021/12/09 07:31:46;;;;;;;62.42;25.48;;;;;;;;;;4919704;29;20091;-76
2021/12/09 07:34:14;;;;;;;51.58;23.85;;;;;;;;;;4919690;29;20121;-77
2021/12/09 07:36:41;;;;;;;48.08;23.58;;;;;;;;;;4904247;29;20077;-77
2021/12/09 07:39:09;;;;;;;45.67;22.95;;;;;;;;;;4920626;29;20044;-76
2021/12/09 07:41:36;;;;;;;46.58;21.73;;;;;;;;;;4920283;29;20141;-76
2021/12/09 07:44:05;;;;;;;49.95;24.20;;;;;;;;;;4854046;29;20081;-77
2021/12/09 07:46:33;;;;;;;53.60;24.92;;;;;;;;;;4837628;29;20045;-76
2021/12/09 07:49:01;;;;;;;43.53;22.10;;;;;;;;;;4852900;29;20045;-76
2021/12/09 07:51:28;;;;;;;46.83;23.55;;;;;;;;;;4853303;29;20337;-76
2021/12/09 07:53:56;;;;;;;47.88;24.25;;;;;;;;;;4853832;29;20490;-76
2021/12/09 07:56:23;;;;;;;48.17;24.83;;;;;;;;;;4854695;29;20179;-77
2021/12/09 07:58:50;;;;;;;42.13;22.60;;;;;;;;;;4853851;29;20054;-76
2021/12/09 08:01:18;;;;;;;44.88;23.10;;;;;;;;;;4853189;29;20049;-76
2021/12/09 08:03:47;;;;;;;43.67;22.70;;;;;;;;;;4852884;29;20050;-76
2021/12/09 08:06:15;;;;;;;43.65;21.40;;;;;;;;;;4852141;29;20066;-76
2021/12/09 08:08:42;;;;;;;38.53;21.33;;;;;;;;;;4852486;29;20050;-76
2021/12/09 08:11:10;;;;;;;43.72;23.02;;;;;;;;;;4852262;29;20188;-76
2021/12/09 08:13:37;;;;;;;45.55;23.48;;;;;;;;;;4855941;29;20073;-76
2021/12/09 08:16:05;;;;;;;44.78;22.60;;;;;;;;;;4904969;29;20074;-76
2021/12/09 08:18:54;;;;;;;43.50;21.55;;;;;;;;;;4911699;29;20123;-76
2021/12/09 08:21:22;;;;;;;41.97;22.00;;;;;;;;;;4908334;29;20500;-76
2021/12/09 08:23:51;;;;;;;45.45;22.80;;;;;;;;;;4911732;29;20082;-76
2021/12/09 08:26:19;;;;;;;42.15;23.33;;;;;;;;;;4896831;29;20078;-76
2021/12/09 08:28:47;;;;;;;51.10;24.60;;;;;;;;;;4913824;29;20567;-76
2021/12/09 08:31:14;;;;;;;43.20;21.70;;;;;;;;;;4899579;29;20449;-76
2021/12/09 08:33:42;;;;;;;45.15;25.00;;;;;;;;;;4912428;29;20708;-76
2021/12/09 08:36:30;;;;;;;49.97;23.02;;;;;;;;;;4907087;29;20055;-76
2021/12/09 08:38:57;;;;;;;39.55;22.05;;;;;;;;;;4911929;29;20430;-75
2021/12/09 08:41:26;;;;;;;45.63;22.38;;;;;;;;;;4910706;29;20071;-75
2021/12/09 08:43:53;;;;;;;47.25;23.15;;;;;;;;;;4895362;29;20073;-75
2021/12/09 08:46:21;;;;;;;42.28;21.90;;;;;;;;;;4906536;29;20041;-75
2021/12/09 08:48:48;;;;;;;45.78;23.20;;;;;;;;;;4912752;29;20059;-75
2021/12/09 08:51:16;;;;;;;44.28;24.08;;;;;;;;;;4928950;29;20040;-75
2021/12/09 08:53:43;;;;;;;50.72;23.63;;;;;;;;;;4910656;29;20119;-76
2021/12/09 08:56:11;;;;;;;40.65;21.63;;;;;;;;;;4897585;29;20603;-76
2021/12/09 08:58:40;;;;;;;45.70;22.98;;;;;;;;;;4916653;29;20047;-76
2021/12/09 09:01:11;;;;;;;38.05;21.67;;;;;;;;;;4887062;29;20047;-75
2021/12/09 09:03:39;;;;;;;43.55;22.63;;;;;;;;;;4896047;29;20060;-75
2021/12/09 09:06:07;;;;;;;42.13;23.50;;;;;;;;;;4920399;29;20488;-75
2021/12/09 09:08:35;;;;;;;42.30;22.48;;;;;;;;;;4894661;29;20369;-75
2021/12/09 09:11:02;;;;;;;40.97;20.50;;;;;;;;;;4917011;29;20097;-76
2021/12/09 09:13:30;;;;;;;37.88;21.92;;;;;;;;;;4877788;29;20080;-75
2021/12/09 09:15:58;;;;;;;37.30;21.17;;;;;;;;;;4907884;29;20119;-76
2021/12/09 09:18:25;;;;;;;37.10;22.10;;;;;;;;;;4893439;29;20124;-76
2021/12/09 09:20:52;;;;;;;35.92;19.83;;;;;;;;;;4889668;29;20464;-75
2021/12/09 09:23:22;;;;;;;34.83;18.52;;;;;;;;;;4906627;29;20127;-75
2021/12/09 09:25:50;;;;;;;40.63;22.05;;;;;;;;;;4887398;29;20047;-75
2021/12/09 09:28:18;;;;;;;37.92;21.27;;;;;;;;;;4909828;29;20406;-75
2021/12/09 09:30:52;;;;;;;36.67;20.88;;;;;;;;;;4912539;29;20111;-75
2021/12/09 09:33:22;;;;;;;38.00;22.23;;;;;;;;;;4910816;29;20036;-75
2021/12/09 09:35:50;;;;;;;37.75;19.73;;;;;;;;;;4911347;29;20405;-75
2021/12/09 09:38:18;;;;;;;42.30;19.35;;;;;;;;;;4910916;29;20056;-75
2021/12/09 09:41:03;;;;;;;39.33;19.55;;;;;;;;;;4916133;29;20488;-75
2021/12/09 09:43:54;;;;;;;37.38;18.95;;;;;;;;;;4897521;29;20044;-76
2021/12/09 09:46:20;;;;;;;34.78;17.63;;;;;;;;;;4898197;29;20550;-75
2021/12/09 09:48:49;;;;;;;38.42;20.17;;;;;;;;;;4911256;29;20345;-75
2021/12/09 09:51:18;;;;;;;40.35;19.10;;;;;;;;;;4896538;29;20437;-75
2021/12/09 09:53:46;;;;;;;37.33;21.05;;;;;;;;;;4907193;29;20097;-75
2021/12/09 09:56:18;;;;;;;39.75;20.45;;;;;;;;;;4903965;29;20139;-76
2021/12/09 09:58:56;;;;;;;34.80;18.92;;;;;;;;;;4899352;29;20466;-76
2021/12/09 10:01:24;;;;;;;35.90;19.17;;;;;;;;;;4913172;29;20107;-76
2021/12/09 10:03:59;;;;;;;34.03;17.83;;;;;;;;;;4923997;29;20399;-76
2021/12/09 10:06:26;;;;;;;40.95;21.40;;;;;;;;;;4888633;29;20067;-75
2021/12/09 10:08:54;;;;;;;44.80;21.48;;;;;;;;;;4911814;29;20048;-75
2021/12/09 10:11:21;;;;;;;39.60;23.17;;;;;;;;;;4911603;29;20377;-75
2021/12/09 10:13:49;;;;;;;39.70;21.65;;;;;;;;;;4909736;29;20108;-75
2021/12/09 10:16:18;;;;;;;42.63;20.60;;;;;;;;;;4920298;29;20071;-75
2021/12/09 10:18:47;;;;;;;33.58;16.73;;;;;;;;;;4910460;29;20071;-76
2021/12/09 10:21:25;;;;;;;35.97;18.38;;;;;;;;;;4912390;29;20135;-75
2021/12/09 10:23:58;;;;;;;34.50;18.42;;;;;;;;;;4909722;29;20076;-76
2021/12/09 10:26:29;;;;;;;32.28;17.33;;;;;;;;;;4911909;29;20036;-77
2021/12/09 10:29:13;;;;;;;35.15;14.65;;;;;;;;;;4913629;29;20497;-77
2021/12/09 10:31:50;;;;;;;37.83;20.83;;;;;;;;;;4906318;29;20047;-77
2021/12/09 10:34:40;;;;;;;43.47;23.92;;;;;;;;;;4898708;29;20523;-77
2021/12/09 10:37:12;;;;;;;31.77;17.95;;;;;;;;;;4915314;29;20493;-77
2021/12/09 10:39:48;;;;;;;33.13;19.90;;;;;;;;;;4913611;29;20236;-77
2021/12/09 10:42:17;;;;;;;30.60;16.75;;;;;;;;;;4896024;29;20533;-78
2021/12/09 10:44:55;;;;;;;34.15;16.30;;;;;;;;;;4915108;29;20127;-77
2021/12/09 10:50:22;;;;;;;30.95;16.83;;;;;;;;;;4913552;29;20040;-76
2021/12/09 10:53:00;;;;;;;32.30;19.40;;;;;;;;;;4924727;29;20067;-77
2021/12/09 10:55:30;;;;;;;34.63;17.65;;;;;;;;;;4901207;29;20100;-77
2021/12/09 10:58:05;;;;;;;41.40;21.48;;;;;;;;;;4922492;29;20103;-77
2021/12/09 11:00:36;;;;;;;29.20;17.52;;;;;;;;;;4929507;29;20048;-77
2021/12/09 11:03:09;;;;;;;33.38;19.80;;;;;;;;;;4920765;29;20047;-77
2021/12/09 11:05:57;;;;;;;40.83;23.48;;;;;;;;;;4949407;29;20055;-77
2021/12/09 11:08:24;;;;;;;40.55;21.63;;;;;;;;;;4924031;29;20170;-77
2021/12/09 11:10:59;;;;;;;35.10;18.55;;;;;;;;;;4929373;29;20134;-76
2021/12/09 11:13:34;;;;;;;35.15;18.05;;;;;;;;;;4913229;29;20059;-77
2021/12/09 11:16:05;;;;;;;31.90;16.33;;;;;;;;;;4912880;29;20044;-77
2021/12/09 11:18:37;;;;;;;32.40;14.98;;;;;;;;;;4912594;29;20048;-77
2021/12/09 11:21:08;;;;;;;31.83;14.55;;;;;;;;;;4920784;29;20040;-77
2021/12/09 11:23:38;;;;;;;29.75;15.57;;;;;;;;;;4906213;29;20449;-77
2021/12/09 11:26:28;;;;;;;42.33;23.38;;;;;;;;;;4911215;29;20076;-77
2021/12/09 11:29:08;;;;;;;36.60;18.40;;;;;;;;;;4912227;29;20401;-78
2021/12/09 11:31:40;;;;;;;45.63;23.48;;;;;;;;;;4903791;29;20085;-77
2021/12/09 11:34:14;;;;;;;32.70;19.65;;;;;;;;;;4912261;29;20044;-77
2021/12/09 11:36:41;;;;;;;33.58;22.05;;;;;;;;;;4909023;29;20051;-77
2021/12/09 11:39:13;;;;;;;35.33;21.10;;;;;;;;;;4907832;29;20071;-78
2021/12/09 11:41:42;;;;;;;31.77;20.10;;;;;;;;;;4895559;29;20040;-79
2021/12/09 11:44:10;;;;;;;41.17;21.02;;;;;;;;;;4912163;29;20139;-76
2021/12/09 11:46:39;;;;;;;43.50;22.23;;;;;;;;;;4913530;29;20044;-78
2021/12/09 11:49:08;;;;;;;38.35;20.02;;;;;;;;;;4913652;29;20127;-78
2021/12/09 11:51:36;;;;;;;37.13;20.15;;;;;;;;;;4907500;29;20111;-79
2021/12/09 11:54:06;;;;;;;41.45;21.83;;;;;;;;;;4903772;29;20067;-79
2021/12/09 11:56:42;;;;;;;36.00;18.63;;;;;;;;;;4918133;29;20072;-78
2021/12/09 12:13:31;;;;;;;37.47;20.60;;;;;;;;;;4885005;29;20304;-78
2021/12/09 12:16:20;;;;;;;41.60;24.40;;;;;;;;;;4876476;29;20340;-78
2021/12/09 12:24:47;;;;;;;41.42;22.45;;;;;;;;;;4891358;29;20036;-77
2021/12/09 12:27:30;;;;;;;37.90;22.83;;;;;;;;;;4876657;29;20600;-77
2021/12/09 12:30:30;;;;;;;46.00;25.10;;;;;;;;;;4879630;29;20089;-78
2021/12/09 12:33:13;;;;;;;42.28;23.15;;;;;;;;;;4893049;29;20074;-79
2021/12/09 12:35:56;;;;;;;36.67;21.95;;;;;;;;;;4886010;29;20040;-78
2021/12/09 12:41:05;;;;;;;43.70;22.27;;;;;;;;;;4898836;29;20059;-78
2021/12/09 12:43:37;;;;;;;44.58;22.98;;;;;;;;;;4883785;29;20059;-78
2021/12/09 12:51:59;;;;;;;40.83;24.55;;;;;;;;;;4850792;29;20069;-78
2021/12/09 12:57:17;;;;;;;44.50;24.60;;;;;;;;;;4844281;29;20046;-78
2021/12/09 12:59:46;;;;;;;48.33;26.92;;;;;;;;;;4842606;29;20050;-78
2021/12/09 13:07:48;;;;;;;43.47;24.25;;;;;;;;;;4841693;29;20050;-78
2021/12/09 13:10:43;;;;;;;44.38;25.20;;;;;;;;;;4839282;29;20102;-78
2021/12/09 13:13:26;;;;;;;43.60;23.45;;;;;;;;;;4829933;29;20565;-78
2021/12/09 13:16:13;;;;;;;57.80;24.42;;;;;;;;;;4845225;29;20074;-78
2021/12/09 13:18:45;;;;;;;41.75;21.80;;;;;;;;;;4852173;29;20670;-78
2021/12/09 13:21:41;;;;;;;53.97;26.20;;;;;;;;;;4840692;29;20053;-75
2021/12/09 13:24:26;;;;;;;47.00;23.48;;;;;;;;;;4855873;29;20056;-76
2021/12/09 13:30:02;;;;;;;47.55;24.27;;;;;;;;;;4883800;29;20064;-76
2021/12/09 13:39:02;;;;;;;44.67;25.65;;;;;;;;;;4889941;29;20075;-75
2021/12/09 13:49:38;;;;;;;56.92;26.42;;;;;;;;;;4883711;29;20060;-76
2021/12/09 13:55:08;;;;;;;46.65;23.35;;;;;;;;;;4893286;29;20516;-76
2021/12/09 13:57:38;;;;;;;55.45;24.25;;;;;;;;;;4891534;29;20144;-75
2021/12/09 14:00:24;;;;;;;57.67;24.50;;;;;;;;;;4895476;29;20072;-75
2021/12/09 14:02:52;;;;;;;73.35;28.05;;;;;;;;;;4889607;29;20052;-76
2021/12/09 14:05:20;;;;;;;70.40;29.27;;;;;;;;;;4890770;29;20062;-76
2021/12/09 14:07:56;;;;;;;69.38;28.60;;;;;;;;;;4890047;29;20040;-76
2021/12/09 14:10:28;;;;;;;86.50;30.73;;;;;;;;;;4875242;29;20064;-77
2021/12/09 14:13:03;;;;;;;79.78;29.20;;;;;;;;;;4890937;29;20104;-78
2021/12/09 14:15:40;;;;;;;65.35;29.90;;;;;;;;;;4888017;29;20070;-78
2021/12/09 14:18:15;;;;;;;82.88;29.90;;;;;;;;;;4884457;29;20072;-79
2021/12/09 14:20:43;;;;;;;70.70;30.50;;;;;;;;;;4890614;29;20140;-78
2021/12/09 14:23:12;;;;;;;69.10;30.20;;;;;;;;;;4879652;29;20068;-80
2021/12/09 14:25:39;;;;;;;53.28;27.75;;;;;;;;;;4896161;29;20052;-80
2021/12/09 14:28:12;;;;;;;67.80;28.80;;;;;;;;;;4900658;29;20093;-77
2021/12/09 14:30:45;;;;;;;69.43;30.63;;;;;;;;;;4878337;29;20067;-79
2021/12/09 14:33:16;;;;;;;59.85;27.75;;;;;;;;;;4860793;29;20067;-79
2021/12/09 14:35:54;;;;;;;75.85;29.05;;;;;;;;;;4891428;29;20118;-80
2021/12/09 14:38:24;;;;;;;78.13;29.40;;;;;;;;;;4889607;29;20055;-77
2021/12/09 14:40:55;;;;;;;64.32;27.48;;;;;;;;;;4874187;29;20069;-76
2021/12/09 14:43:23;;;;;;;72.90;28.40;;;;;;;;;;4890792;29;20113;-78
2021/12/09 14:45:51;;;;;;;62.63;28.30;;;;;;;;;;4888778;29;20135;-78
2021/12/09 14:48:26;;;;;;;81.90;29.17;;;;;;;;;;4892003;29;20287;-79
2021/12/09 14:50:54;;;;;;;75.35;29.95;;;;;;;;;;4889945;29;20143;-76
2021/12/09 14:53:29;;;;;;;106.55;42.53;;;;;;;;;;4894241;29;20082;-78
2021/12/09 14:55:56;;;;;;;79.00;30.20;;;;;;;;;;4874951;29;20094;-79
2021/12/09 14:58:24;;;;;;;74.47;29.70;;;;;;;;;;4893766;29;20048;-77
2021/12/09 15:00:57;;;;;;;66.30;28.30;;;;;;;;;;4894020;29;20045;-80
2021/12/09 15:03:35;;;;;;;68.68;28.77;;;;;;;;;;4894409;29;20577;-80
2021/12/09 15:06:23;;;;;;;78.45;29.13;;;;;;;;;;4900197;29;20127;-78
2021/12/09 15:08:54;;;;;;;69.53;30.23;;;;;;;;;;4887221;29;20394;-77
2021/12/09 15:11:21;;;;;;;91.47;29.63;;;;;;;;;;4895421;29;20036;-80
2021/12/09 15:13:51;;;;;;;76.00;28.85;;;;;;;;;;4878764;29;20092;-78
2021/12/09 15:16:21;;;;;;;69.57;30.08;;;;;;;;;;4880348;29;20108;-77
2021/12/09 15:18:49;;;;;;;68.32;29.33;;;;;;;;;;4894367;29;20136;-79
2021/12/09 15:21:21;;;;;;;69.70;29.10;;;;;;;;;;4901884;29;20076;-78
2021/12/09 15:23:52;;;;;;;61.88;29.23;;;;;;;;;;4875631;29;20086;-80
2021/12/09 15:26:21;;;;;;;67.93;29.23;;;;;;;;;;4895261;29;20136;-77
2021/12/09 15:29:04;;;;;;;57.42;27.95;;;;;;;;;;4878894;29;20571;-78
2021/12/09 15:31:32;;;;;;;66.30;32.13;;;;;;;;;;4879367;29;20072;-77
2021/12/09 15:34:07;;;;;;;57.88;27.08;;;;;;;;;;4881158;29;20156;-79
2021/12/09 15:36:36;;;;;;;72.07;28.88;;;;;;;;;;4882211;29;20075;-78
2021/12/09 15:39:29;;;;;;;65.70;28.35;;;;;;;;;;4890839;29;20824;-77
2021/12/09 15:42:02;;;;;;;71.82;28.05;;;;;;;;;;4888900;29;20148;-77